Time,TemperatureF,DewpointF,PressureIn,WindDirection,WindDirectionDegrees,WindSpeedMPH,WindSpeedGustMPH,Humidity,HourlyPrecipIn,Conditions,Clouds,dailyrainin,SoftwareType,DateUTC
2013-01-05 00:01:00,37.8,29.2,30.14,West,278,0.0,6.0,71,0.00,,,0.00,Wunderground v.1.15,2013-01-05 08:01:00,
2013-01-05 00:06:00,37.4,29.2,30.14,West,277,0.0,6.0,72,0.00,,,0.00,Wunderground v.1.15,2013-01-05 08:06:00,
2013-01-05 00:11:00,37.2,29.3,30.14,West,278,0.0,6.0,73,0.00,,,0.00,Wunderground v.1.15,2013-01-05 08:11:00,
2013-01-05 00:16:00,37.0,29.1,30.14,West,278,0.0,6.0,73,0.00,,,0.00,Wunderground v.1.15,2013-01-05 08:16:00,
2013-01-05 00:22:00,36.9,29.1,30.14,West,278,0.0,6.0,73,0.00,,,0.00,Wunderground v.1.15,2013-01-05 08:22:00,
2013-01-05 00:27:00,36.9,29.1,30.14,West,278,0.0,6.0,73,0.00,,,0.00,Wunderground v.1.15,2013-01-05 08:27:00,
2013-01-05 00:32:00,36.8,28.6,30.14,West,277,0.0,6.0,72,0.00,,,0.00,Wunderground v.1.15,2013-01-05 08:32:00,
2013-01-05 00:37:00,36.8,28.6,30.14,West,278,0.0,6.0,72,0.00,,,0.00,Wunderground v.1.15,2013-01-05 08:37:00,
2013-01-05 00:42:00,36.7,28.5,30.14,West,278,0.0,6.0,72,0.00,,,0.00,Wunderground v.1.15,2013-01-05 08:42:00,
2013-01-05 00:47:00,36.6,28.4,30.14,West,277,0.0,6.0,72,0.00,,,0.00,Wunderground v.1.15,2013-01-05 08:47:00,
2013-01-05 00:52:00,36.4,27.9,30.14,West,278,0.0,6.0,71,0.00,,,0.00,Wunderground v.1.15,2013-01-05 08:52:00,
2013-01-05 00:57:00,36.3,28.1,30.14,West,278,0.0,6.0,72,0.00,,,0.00,Wunderground v.1.15,2013-01-05 08:57:00,
2013-01-05 01:02:00,36.2,28.0,30.14,West,277,0.0,6.0,72,0.00,,,0.00,Wunderground v.1.15,2013-01-05 09:02:00,
2013-01-05 01:07:00,36.3,27.8,30.14,West,278,0.0,6.0,71,0.00,,,0.00,Wunderground v.1.15,2013-01-05 09:07:00,
2013-01-05 01:12:00,36.3,27.8,30.14,West,277,0.0,6.0,71,0.00,,,0.00,Wunderground v.1.15,2013-01-05 09:12:00,
2013-01-05 01:17:00,36.2,27.4,30.14,West,278,0.0,6.0,70,0.00,,,0.00,Wunderground v.1.15,2013-01-05 09:17:00,
2013-01-05 01:23:00,36.2,27.4,30.14,West,277,0.0,6.0,70,0.00,,,0.00,Wunderground v.1.15,2013-01-05 09:23:00,
2013-01-05 01:28:00,36.2,27.4,30.13,West,277,0.0,6.0,70,0.00,,,0.00,Wunderground v.1.15,2013-01-05 09:28:00,
2013-01-05 01:33:00,36.3,27.1,30.13,West,278,0.0,6.0,69,0.00,,,0.00,Wunderground v.1.15,2013-01-05 09:33:00,
2013-01-05 01:39:00,36.4,26.8,30.14,West,278,0.0,6.0,68,0.00,,,0.00,Wunderground v.1.15,2013-01-05 09:39:00,
2013-01-05 01:44:00,36.6,26.3,30.14,West,278,0.0,6.0,66,0.00,,,0.00,Wunderground v.1.15,2013-01-05 09:44:00,
2013-01-05 01:49:00,36.7,26.4,30.14,West,277,0.0,6.0,66,0.00,,,0.00,Wunderground v.1.15,2013-01-05 09:49:00,
2013-01-05 01:54:00,36.8,26.1,30.14,West,278,0.0,6.0,65,0.00,,,0.00,Wunderground v.1.15,2013-01-05 09:54:00,
2013-01-05 01:59:00,36.9,26.6,30.14,West,277,0.0,6.0,66,0.00,,,0.00,Wunderground v.1.15,2013-01-05 09:59:00,
2013-01-05 02:05:00,36.9,26.2,30.14,West,277,0.0,6.0,65,0.00,,,0.00,Wunderground v.1.15,2013-01-05 10:05:00,
2013-01-05 02:10:00,36.8,26.1,30.14,West,278,0.0,6.0,65,0.00,,,0.00,Wunderground v.1.15,2013-01-05 10:10:00,
2013-01-05 02:15:00,36.8,26.1,30.14,West,277,0.0,6.0,65,0.00,,,0.00,Wunderground v.1.15,2013-01-05 10:15:00,
2013-01-05 02:20:00,36.8,25.8,30.14,West,277,0.0,6.0,64,0.00,,,0.00,Wunderground v.1.15,2013-01-05 10:20:00,
2013-01-05 02:25:00,36.9,25.9,30.14,West,278,0.0,6.0,64,0.00,,,0.00,Wunderground v.1.15,2013-01-05 10:25:00,
2013-01-05 02:30:00,37.0,25.9,30.14,West,278,0.0,6.0,64,0.00,,,0.00,Wunderground v.1.15,2013-01-05 10:30:00,
2013-01-05 02:35:00,37.1,24.9,30.14,West,278,0.0,6.0,61,0.00,,,0.00,Wunderground v.1.15,2013-01-05 10:35:00,
2013-01-05 02:40:00,37.1,25.7,30.14,West,278,0.0,6.0,63,0.00,,,0.00,Wunderground v.1.15,2013-01-05 10:40:00,
2013-01-05 02:45:00,37.2,25.8,30.14,West,277,0.0,6.0,63,0.00,,,0.00,Wunderground v.1.15,2013-01-05 10:45:00,
2013-01-05 02:51:00,37.1,25.7,30.14,West,278,0.0,6.0,63,0.00,,,0.00,Wunderground v.1.15,2013-01-05 10:51:00,
2013-01-05 02:56:00,37.0,25.2,30.14,West,278,0.0,6.0,62,0.00,,,0.00,Wunderground v.1.15,2013-01-05 10:56:00,
2013-01-05 03:01:00,36.9,25.1,30.14,West,277,0.0,6.0,62,0.00,,,0.00,Wunderground v.1.15,2013-01-05 11:01:00,
2013-01-05 03:06:00,36.8,25.4,30.15,West,277,0.0,6.0,63,0.00,,,0.00,Wunderground v.1.15,2013-01-05 11:06:00,
2013-01-05 03:11:00,36.5,25.1,30.15,West,278,0.0,6.0,63,0.00,,,0.00,Wunderground v.1.15,2013-01-05 11:11:00,
2013-01-05 03:16:00,36.3,25.7,30.15,West,277,0.0,6.0,65,0.00,,,0.00,Wunderground v.1.15,2013-01-05 11:16:00,
2013-01-05 03:21:00,36.1,25.8,30.14,West,278,0.0,6.0,66,0.00,,,0.00,Wunderground v.1.15,2013-01-05 11:21:00,
2013-01-05 03:26:00,35.9,25.6,30.15,West,277,0.0,6.0,66,0.00,,,0.00,Wunderground v.1.15,2013-01-05 11:26:00,
2013-01-05 03:31:00,35.7,25.8,30.15,West,277,0.0,6.0,67,0.00,,,0.00,Wunderground v.1.15,2013-01-05 11:31:00,
2013-01-05 03:36:00,35.7,25.4,30.15,West,278,0.0,6.0,66,0.00,,,0.00,Wunderground v.1.15,2013-01-05 11:36:00,
2013-01-05 03:41:00,35.7,25.4,30.15,West,278,0.0,6.0,66,0.00,,,0.00,Wunderground v.1.15,2013-01-05 11:41:00,
2013-01-05 03:46:00,35.6,25.4,30.15,West,278,0.0,6.0,66,0.00,,,0.00,Wunderground v.1.15,2013-01-05 11:46:00,
2013-01-05 03:52:00,35.7,25.4,30.15,West,278,0.0,6.0,66,0.00,,,0.00,Wunderground v.1.15,2013-01-05 11:52:00,
2013-01-05 03:57:00,35.8,25.5,30.15,West,277,0.0,6.0,66,0.00,,,0.00,Wunderground v.1.15,2013-01-05 11:57:00,
2013-01-05 04:02:00,35.7,25.1,30.15,West,278,0.0,6.0,65,0.00,,,0.00,Wunderground v.1.15,2013-01-05 12:02:00,
2013-01-05 04:07:00,35.7,25.1,30.15,West,278,0.0,6.0,65,0.00,,,0.00,Wunderground v.1.15,2013-01-05 12:07:00,
2013-01-05 04:12:00,35.6,25.4,30.16,West,277,0.0,6.0,66,0.00,,,0.00,Wunderground v.1.15,2013-01-05 12:12:00,
2013-01-05 04:17:00,35.4,24.8,30.16,West,277,0.0,6.0,65,0.00,,,0.00,Wunderground v.1.15,2013-01-05 12:17:00,
2013-01-05 04:23:00,35.3,25.4,30.16,West,277,0.0,6.0,67,0.00,,,0.00,Wunderground v.1.15,2013-01-05 12:23:00,
2013-01-05 04:28:00,35.2,25.0,30.16,West,278,0.0,6.0,66,0.00,,,0.00,Wunderground v.1.15,2013-01-05 12:28:00,
2013-01-05 04:34:00,35.1,25.2,30.15,West,278,0.0,6.0,67,0.00,,,0.00,Wunderground v.1.15,2013-01-05 12:34:00,
2013-01-05 04:39:00,34.9,25.0,30.16,West,278,0.0,6.0,67,0.00,,,0.00,Wunderground v.1.15,2013-01-05 12:39:00,
2013-01-05 04:44:00,34.8,25.3,30.16,West,277,0.0,6.0,68,0.00,,,0.00,Wunderground v.1.15,2013-01-05 12:44:00,
2013-01-05 04:49:00,34.8,25.0,30.16,West,278,0.0,6.0,67,0.00,,,0.00,Wunderground v.1.15,2013-01-05 12:49:00,
2013-01-05 04:54:00,34.8,25.7,30.16,West,277,0.0,6.0,69,0.00,,,0.00,Wunderground v.1.15,2013-01-05 12:54:00,
2013-01-05 05:00:00,34.7,25.2,30.16,West,277,0.0,6.0,68,0.00,,,0.00,Wunderground v.1.15,2013-01-05 13:00:00,
2013-01-05 05:05:00,34.7,25.2,30.16,West,278,0.0,6.0,68,0.00,,,0.00,Wunderground v.1.15,2013-01-05 13:05:00,
2013-01-05 05:10:00,34.7,25.2,30.16,West,278,0.0,6.0,68,0.00,,,0.00,Wunderground v.1.15,2013-01-05 13:10:00,
2013-01-05 05:15:00,-999.9,-99.9,30.17,North,32767,-999.0,6.0,255,-99.99,,,0.00,Wunderground v.1.15,2013-01-05 13:15:00,
2013-01-05 05:20:00,-999.9,-99.9,30.16,North,32767,-999.0,6.0,255,-99.99,,,0.00,Wunderground v.1.15,2013-01-05 13:20:00,
2013-01-05 05:25:00,-999.9,-99.9,30.17,North,32767,-999.0,6.0,255,-99.99,,,0.00,Wunderground v.1.15,2013-01-05 13:25:00,
2013-01-05 05:30:00,-999.9,-99.9,30.17,North,32767,-999.0,6.0,255,-99.99,,,0.00,Wunderground v.1.15,2013-01-05 13:30:00,
2013-01-05 05:35:00,-999.9,-99.9,30.17,North,32767,-999.0,6.0,255,-99.99,,,0.00,Wunderground v.1.15,2013-01-05 13:35:00,
2013-01-05 05:40:00,-999.9,-99.9,30.17,North,32767,-999.0,6.0,255,-99.99,,,0.00,Wunderground v.1.15,2013-01-05 13:40:00,
2013-01-05 05:46:00,-999.9,-99.9,30.17,North,32767,-999.0,6.0,255,-99.99,,,0.00,Wunderground v.1.15,2013-01-05 13:46:00,
2013-01-05 05:51:00,-999.9,-99.9,30.17,North,32767,-999.0,6.0,255,-99.99,,,0.00,Wunderground v.1.15,2013-01-05 13:51:00,
2013-01-05 05:56:00,-999.9,-99.9,30.17,North,32767,-999.0,6.0,255,-99.99,,,0.00,Wunderground v.1.15,2013-01-05 13:56:00,
2013-01-05 06:01:00,-999.9,-99.9,30.17,North,32767,-999.0,6.0,255,-99.99,,,0.00,Wunderground v.1.15,2013-01-05 14:01:00,
2013-01-05 06:06:00,-999.9,-99.9,30.17,North,32767,-999.0,6.0,255,-99.99,,,0.00,Wunderground v.1.15,2013-01-05 14:06:00,
2013-01-05 06:11:00,-999.9,-99.9,30.17,North,32767,-999.0,6.0,255,-99.99,,,0.00,Wunderground v.1.15,2013-01-05 14:11:00,
2013-01-05 06:16:00,-999.9,-99.9,30.17,North,32767,-999.0,6.0,255,-99.99,,,0.00,Wunderground v.1.15,2013-01-05 14:16:00,
2013-01-05 06:21:00,-999.9,-99.9,30.17,North,32767,-999.0,6.0,255,-99.99,,,0.00,Wunderground v.1.15,2013-01-05 14:21:00,
2013-01-05 06:26:00,-999.9,-99.9,30.17,North,32767,-999.0,6.0,255,-99.99,,,0.00,Wunderground v.1.15,2013-01-05 14:26:00,
2013-01-05 06:31:00,-999.9,-99.9,30.18,North,32767,-999.0,6.0,255,-99.99,,,0.00,Wunderground v.1.15,2013-01-05 14:31:00,
2013-01-05 06:36:00,-999.9,-99.9,30.17,North,32767,-999.0,6.0,255,-99.99,,,0.00,Wunderground v.1.15,2013-01-05 14:36:00,
2013-01-05 06:41:00,-999.9,-99.9,30.18,North,32767,-999.0,6.0,255,-99.99,,,0.00,Wunderground v.1.15,2013-01-05 14:41:00,
2013-01-05 06:47:00,-999.9,-99.9,30.17,North,32767,-999.0,6.0,255,-99.99,,,0.00,Wunderground v.1.15,2013-01-05 14:47:00,
2013-01-05 06:52:00,-999.9,-99.9,30.18,North,32767,-999.0,6.0,255,-99.99,,,0.00,Wunderground v.1.15,2013-01-05 14:52:00,
2013-01-05 06:57:00,-999.9,-99.9,30.18,North,32767,-999.0,6.0,255,-99.99,,,0.00,Wunderground v.1.15,2013-01-05 14:57:00,
2013-01-05 07:02:00,-999.9,-99.9,30.18,North,32767,-999.0,6.0,255,-99.99,,,0.00,Wunderground v.1.15,2013-01-05 15:02:00,
2013-01-05 07:08:00,-999.9,-99.9,30.18,North,32767,-999.0,6.0,255,-99.99,,,0.00,Wunderground v.1.15,2013-01-05 15:08:00,
2013-01-05 07:13:00,-999.9,-99.9,30.18,North,32767,-999.0,6.0,255,-99.99,,,0.00,Wunderground v.1.15,2013-01-05 15:13:00,
2013-01-05 07:18:00,-999.9,-99.9,30.18,North,32767,-999.0,6.0,255,-99.99,,,0.00,Wunderground v.1.15,2013-01-05 15:18:00,
2013-01-05 07:23:00,-999.9,-99.9,30.19,North,32767,-999.0,6.0,255,-99.99,,,0.00,Wunderground v.1.15,2013-01-05 15:23:00,
2013-01-05 07:28:00,-999.9,-99.9,30.19,North,32767,-999.0,6.0,255,-99.99,,,0.00,Wunderground v.1.15,2013-01-05 15:28:00,
2013-01-05 07:33:00,-999.9,-99.9,30.19,North,32767,-999.0,6.0,255,-99.99,,,0.00,Wunderground v.1.15,2013-01-05 15:33:00,
2013-01-05 07:38:00,-999.9,-99.9,30.19,North,32767,-999.0,6.0,255,-99.99,,,0.00,Wunderground v.1.15,2013-01-05 15:38:00,
2013-01-05 07:44:00,-999.9,-99.9,30.19,North,32767,-999.0,6.0,255,-99.99,,,0.00,Wunderground v.1.15,2013-01-05 15:44:00,
2013-01-05 07:49:00,-999.9,-99.9,30.19,North,32767,-999.0,6.0,255,-99.99,,,0.00,Wunderground v.1.15,2013-01-05 15:49:00,
2013-01-05 07:54:00,-999.9,-99.9,30.19,North,32767,-999.0,6.0,255,-99.99,,,0.00,Wunderground v.1.15,2013-01-05 15:54:00,
2013-01-05 07:59:00,-999.9,-99.9,30.19,North,32767,-999.0,6.0,255,-99.99,,,0.00,Wunderground v.1.15,2013-01-05 15:59:00,
2013-01-05 08:04:00,-999.9,-99.9,30.19,North,32767,-999.0,6.0,255,-99.99,,,0.00,Wunderground v.1.15,2013-01-05 16:04:00,
2013-01-05 08:09:00,-999.9,-99.9,30.19,North,32767,-999.0,6.0,255,-99.99,,,0.00,Wunderground v.1.15,2013-01-05 16:09:00,
2013-01-05 08:14:00,-999.9,-99.9,30.18,North,32767,-999.0,6.0,255,-99.99,,,0.00,Wunderground v.1.15,2013-01-05 16:14:00,
2013-01-05 08:19:00,-999.9,-99.9,30.19,North,32767,-999.0,6.0,255,-99.99,,,0.00,Wunderground v.1.15,2013-01-05 16:19:00,
2013-01-05 08:24:00,-999.9,-99.9,30.19,North,32767,-999.0,6.0,255,-99.99,,,0.00,Wunderground v.1.15,2013-01-05 16:24:00,
2013-01-05 08:29:00,-999.9,-99.9,30.19,North,32767,-999.0,6.0,255,-99.99,,,0.00,Wunderground v.1.15,2013-01-05 16:29:00,
2013-01-05 08:35:00,-999.9,-99.9,30.20,North,32767,-999.0,6.0,255,-99.99,,,0.00,Wunderground v.1.15,2013-01-05 16:35:00,
2013-01-05 08:40:00,-999.9,-99.9,30.20,North,32767,-999.0,6.0,255,-99.99,,,0.00,Wunderground v.1.15,2013-01-05 16:40:00,
2013-01-05 08:46:00,-999.9,-99.9,30.20,North,32767,-999.0,6.0,255,-99.99,,,0.00,Wunderground v.1.15,2013-01-05 16:46:00,
2013-01-05 08:51:00,-999.9,-99.9,30.20,North,32767,-999.0,6.0,255,-99.99,,,0.00,Wunderground v.1.15,2013-01-05 16:51:00,
2013-01-05 08:56:00,-999.9,-99.9,30.20,North,32767,-999.0,6.0,255,-99.99,,,0.00,Wunderground v.1.15,2013-01-05 16:56:00,
2013-01-05 09:01:00,-999.9,-99.9,30.20,North,32767,-999.0,6.0,255,-99.99,,,0.00,Wunderground v.1.15,2013-01-05 17:01:00,
2013-01-05 09:06:00,-999.9,-99.9,30.20,North,32767,-999.0,6.0,255,-99.99,,,0.00,Wunderground v.1.15,2013-01-05 17:06:00,
2013-01-05 09:11:00,-999.9,-99.9,30.20,North,32767,-999.0,6.0,255,-99.99,,,0.00,Wunderground v.1.15,2013-01-05 17:11:00,
2013-01-05 09:17:00,-999.9,-99.9,30.20,North,32767,-999.0,6.0,255,-99.99,,,0.00,Wunderground v.1.15,2013-01-05 17:17:00,
2013-01-05 09:22:00,-999.9,-99.9,30.20,North,32767,-999.0,6.0,255,-99.99,,,0.00,Wunderground v.1.15,2013-01-05 17:22:00,
2013-01-05 09:28:00,-999.9,-99.9,30.20,North,32767,-999.0,6.0,255,-99.99,,,0.00,Wunderground v.1.15,2013-01-05 17:28:00,
2013-01-05 09:33:00,-999.9,-99.9,30.20,North,32767,-999.0,6.0,255,-99.99,,,0.00,Wunderground v.1.15,2013-01-05 17:33:00,
2013-01-05 09:38:00,-999.9,-99.9,30.20,North,32767,-999.0,6.0,255,-99.99,,,0.00,Wunderground v.1.15,2013-01-05 17:38:00,
2013-01-05 09:43:00,-999.9,-99.9,30.20,North,32767,-999.0,6.0,255,-99.99,,,0.00,Wunderground v.1.15,2013-01-05 17:43:00,
2013-01-05 09:48:00,-999.9,-99.9,30.20,North,32767,-999.0,6.0,255,-99.99,,,0.00,Wunderground v.1.15,2013-01-05 17:48:00,
2013-01-05 09:53:00,-999.9,-99.9,30.20,North,32767,-999.0,6.0,255,-99.99,,,0.00,Wunderground v.1.15,2013-01-05 17:53:00,
2013-01-05 09:58:00,-999.9,-99.9,30.20,North,32767,-999.0,6.0,255,-99.99,,,0.00,Wunderground v.1.15,2013-01-05 17:58:00,
2013-01-05 10:03:00,-999.9,-99.9,30.20,North,32767,-999.0,6.0,255,-99.99,,,0.00,Wunderground v.1.15,2013-01-05 18:03:00,
2013-01-05 10:08:00,-999.9,-99.9,30.20,North,32767,-999.0,6.0,255,-99.99,,,0.00,Wunderground v.1.15,2013-01-05 18:08:00,
2013-01-05 10:13:00,-999.9,-99.9,30.20,North,32767,-999.0,6.0,255,-99.99,,,0.00,Wunderground v.1.15,2013-01-05 18:13:00,
2013-01-05 10:18:00,-999.9,-99.9,30.20,North,32767,-999.0,6.0,255,-99.99,,,0.00,Wunderground v.1.15,2013-01-05 18:18:00,
2013-01-05 10:24:00,-999.9,-99.9,30.19,North,32767,-999.0,6.0,255,-99.99,,,0.00,Wunderground v.1.15,2013-01-05 18:24:00,
2013-01-05 10:29:00,-999.9,-99.9,30.19,North,32767,-999.0,6.0,255,-99.99,,,0.00,Wunderground v.1.15,2013-01-05 18:29:00,
2013-01-05 10:34:00,-999.9,-99.9,30.19,North,32767,-999.0,6.0,255,-99.99,,,0.00,Wunderground v.1.15,2013-01-05 18:34:00,
2013-01-05 10:39:00,-999.9,-99.9,30.19,North,32767,-999.0,6.0,255,-99.99,,,0.00,Wunderground v.1.15,2013-01-05 18:39:00,
2013-01-05 10:44:00,-999.9,-99.9,30.19,North,32767,-999.0,6.0,255,-99.99,,,0.00,Wunderground v.1.15,2013-01-05 18:44:00,
2013-01-05 10:49:00,-999.9,-99.9,30.18,North,32767,-999.0,6.0,255,-99.99,,,0.00,Wunderground v.1.15,2013-01-05 18:49:00,
2013-01-05 10:54:00,-999.9,-99.9,30.18,North,32767,-999.0,6.0,255,-99.99,,,0.00,Wunderground v.1.15,2013-01-05 18:54:00,
2013-01-05 10:59:00,-999.9,-99.9,30.18,North,32767,-999.0,6.0,255,-99.99,,,0.00,Wunderground v.1.15,2013-01-05 18:59:00,
2013-01-05 11:04:00,-999.9,-99.9,30.18,North,32767,-999.0,6.0,255,-99.99,,,0.00,Wunderground v.1.15,2013-01-05 19:04:00,
2013-01-05 11:09:00,-999.9,-99.9,30.17,North,32767,-999.0,6.0,255,-99.99,,,0.00,Wunderground v.1.15,2013-01-05 19:09:00,
2013-01-05 11:15:00,62.1,33.4,30.17,SW,219,1.0,6.0,34,0.00,,,0.00,Wunderground v.1.15,2013-01-05 19:15:00,
2013-01-05 11:21:00,61.9,33.9,30.16,WSW,238,2.0,6.0,35,0.00,,,0.00,Wunderground v.1.15,2013-01-05 19:21:00,
2013-01-05 11:26:00,62.2,32.7,30.16,WSW,254,2.0,6.0,33,0.00,,,0.00,Wunderground v.1.15,2013-01-05 19:26:00,
2013-01-05 11:31:00,62.5,32.2,30.15,WSW,254,1.0,6.0,32,0.00,,,0.00,Wunderground v.1.15,2013-01-05 19:31:00,
2013-01-05 11:36:00,62.9,32.6,30.15,WSW,246,1.0,6.0,32,0.00,,,0.00,Wunderground v.1.15,2013-01-05 19:36:00,
2013-01-05 11:41:00,63.2,31.2,30.14,West,265,1.0,6.0,30,0.00,,,0.00,Wunderground v.1.15,2013-01-05 19:41:00,
2013-01-05 11:46:00,64.0,32.7,30.14,West,267,1.0,6.0,31,0.00,,,0.00,Wunderground v.1.15,2013-01-05 19:46:00,
2013-01-05 11:51:00,64.2,32.1,30.14,WSW,252,1.0,6.0,30,0.00,,,0.00,Wunderground v.1.15,2013-01-05 19:51:00,
2013-01-05 11:57:00,64.3,31.3,30.13,WSW,242,1.0,6.0,29,0.00,,,0.00,Wunderground v.1.15,2013-01-05 19:57:00,
2013-01-05 12:02:00,64.2,32.1,30.13,WSW,239,1.0,6.0,30,0.00,,,0.00,Wunderground v.1.15,2013-01-05 20:02:00,
2013-01-05 12:07:00,64.4,31.4,30.13,WSW,242,1.0,6.0,29,0.00,,,0.00,Wunderground v.1.15,2013-01-05 20:07:00,
2013-01-05 12:12:00,65.0,32.8,30.12,WSW,242,0.0,6.0,30,0.00,,,0.00,Wunderground v.1.15,2013-01-05 20:12:00,
2013-01-05 12:17:00,65.6,32.5,30.12,WSW,240,0.0,6.0,29,0.00,,,0.00,Wunderground v.1.15,2013-01-05 20:17:00,
2013-01-05 12:22:00,65.5,30.6,30.12,WSW,257,1.0,6.0,27,0.00,,,0.00,Wunderground v.1.15,2013-01-05 20:22:00,
2013-01-05 12:28:00,65.6,31.6,30.12,WSW,248,1.0,6.0,28,0.00,,,0.00,Wunderground v.1.15,2013-01-05 20:28:00,
2013-01-05 12:33:00,65.3,31.3,30.12,West,276,2.0,6.0,28,0.00,,,0.00,Wunderground v.1.15,2013-01-05 20:33:00,
2013-01-05 12:39:00,65.5,33.2,30.11,WSW,249,2.0,6.0,30,0.00,,,0.00,Wunderground v.1.15,2013-01-05 20:39:00,
2013-01-05 12:44:00,65.4,34.0,30.11,WSW,252,2.0,6.0,31,0.00,,,0.00,Wunderground v.1.15,2013-01-05 20:44:00,
2013-01-05 12:49:00,65.5,34.0,30.11,WSW,244,2.0,6.0,31,0.00,,,0.00,Wunderground v.1.15,2013-01-05 20:49:00,
2013-01-05 12:54:00,65.3,34.7,30.10,West,262,2.0,6.0,32,0.00,,,0.00,Wunderground v.1.15,2013-01-05 20:54:00,
2013-01-05 12:59:00,65.6,33.3,30.10,West,272,3.0,9.0,30,0.00,,,0.00,Wunderground v.1.15,2013-01-05 20:59:00,
2013-01-05 13:04:00,65.5,33.2,30.10,West,266,2.0,6.0,30,0.00,,,0.00,Wunderground v.1.15,2013-01-05 21:04:00,
2013-01-05 13:09:00,65.3,33.0,30.10,West,265,3.0,7.0,30,0.00,,,0.00,Wunderground v.1.15,2013-01-05 21:09:00,
2013-01-05 13:14:00,65.2,34.6,30.10,WSW,248,3.0,6.0,32,0.00,,,0.00,Wunderground v.1.15,2013-01-05 21:14:00,
2013-01-05 13:19:00,65.0,34.4,30.10,West,269,2.0,2.0,32,0.00,,,0.00,Wunderground v.1.15,2013-01-05 21:19:00,
2013-01-05 13:24:00,64.8,34.2,30.10,WSW,256,3.0,8.0,32,0.00,,,0.00,Wunderground v.1.15,2013-01-05 21:24:00,
2013-01-05 13:29:00,64.5,34.0,30.10,West,273,4.0,4.0,32,0.00,,,0.00,Wunderground v.1.15,2013-01-05 21:29:00,
2013-01-05 13:34:00,63.8,34.9,30.10,West,274,5.0,10.0,34,0.00,,,0.00,Wunderground v.1.15,2013-01-05 21:34:00,
2013-01-05 13:39:00,63.4,36.0,30.10,West,273,4.0,11.0,36,0.00,,,0.00,Wunderground v.1.15,2013-01-05 21:39:00,
2013-01-05 13:45:00,63.2,36.5,30.10,WSW,252,4.0,11.0,37,0.00,,,0.00,Wunderground v.1.15,2013-01-05 21:45:00,
2013-01-05 13:50:00,63.0,37.6,30.10,West,267,5.0,8.0,39,0.00,,,0.00,Wunderground v.1.15,2013-01-05 21:50:00,
2013-01-05 13:55:00,62.7,39.9,30.10,West,271,6.0,8.0,43,0.00,,,0.00,Wunderground v.1.15,2013-01-05 21:55:00,
2013-01-05 14:00:00,62.4,41.3,30.10,West,271,5.0,5.0,46,0.00,,,0.00,Wunderground v.1.15,2013-01-05 22:00:00,
2013-01-05 14:05:00,62.4,41.9,30.10,West,269,4.0,7.0,47,0.00,,,0.00,Wunderground v.1.15,2013-01-05 22:05:00,
2013-01-05 14:10:00,62.4,42.4,30.10,West,261,3.0,6.0,48,0.00,,,0.00,Wunderground v.1.15,2013-01-05 22:10:00,
2013-01-05 14:15:00,62.2,42.8,30.10,WNW,294,3.0,6.0,49,0.00,,,0.00,Wunderground v.1.15,2013-01-05 22:15:00,
2013-01-05 14:20:00,62.2,42.8,30.10,West,273,3.0,3.0,49,0.00,,,0.00,Wunderground v.1.15,2013-01-05 22:20:00,
2013-01-05 14:26:00,62.2,41.7,30.10,West,272,3.0,9.0,47,0.00,,,0.00,Wunderground v.1.15,2013-01-05 22:26:00,
2013-01-05 14:31:00,61.8,41.9,30.10,West,278,4.0,4.0,48,0.00,,,0.00,Wunderground v.1.15,2013-01-05 22:31:00,
2013-01-05 14:36:00,61.4,41.0,30.10,WSW,250,3.0,8.0,47,0.00,,,0.00,Wunderground v.1.15,2013-01-05 22:36:00,
2013-01-05 14:42:00,61.3,41.4,30.09,West,279,3.0,6.0,48,0.00,,,0.00,Wunderground v.1.15,2013-01-05 22:42:00,
2013-01-05 14:47:00,61.5,41.6,30.09,West,273,2.0,6.0,48,0.00,,,0.00,Wunderground v.1.15,2013-01-05 22:47:00,
2013-01-05 14:52:00,61.7,41.3,30.09,West,271,2.0,6.0,47,0.00,,,0.00,Wunderground v.1.15,2013-01-05 22:52:00,
2013-01-05 14:57:00,61.9,40.9,30.09,West,276,2.0,6.0,46,0.00,,,0.00,Wunderground v.1.15,2013-01-05 22:57:00,
2013-01-05 15:02:00,62.0,39.2,30.09,West,281,2.0,6.0,43,0.00,,,0.00,Wunderground v.1.15,2013-01-05 23:02:00,
2013-01-05 15:08:00,61.7,39.6,30.09,WSW,255,3.0,6.0,44,0.00,,,0.00,Wunderground v.1.15,2013-01-05 23:08:00,
2013-01-05 15:13:00,61.8,39.1,30.10,West,276,2.0,6.0,43,0.00,,,0.00,Wunderground v.1.15,2013-01-05 23:13:00,
2013-01-05 15:18:00,61.9,37.9,30.10,West,268,2.0,7.0,41,0.00,,,0.00,Wunderground v.1.15,2013-01-05 23:18:00,
2013-01-05 15:23:00,62.0,38.6,30.09,WSW,244,1.0,6.0,42,0.00,,,0.00,Wunderground v.1.15,2013-01-05 23:23:00,
2013-01-05 15:28:00,62.1,39.3,30.09,West,259,1.0,6.0,43,0.00,,,0.00,Wunderground v.1.15,2013-01-05 23:28:00,
2013-01-05 15:33:00,62.0,38.6,30.10,West,259,0.0,6.0,42,0.00,,,0.00,Wunderground v.1.15,2013-01-05 23:33:00,
2013-01-05 15:38:00,61.9,38.5,30.10,West,259,0.0,6.0,42,0.00,,,0.00,Wunderground v.1.15,2013-01-05 23:38:00,
2013-01-05 15:43:00,61.7,37.7,30.09,West,259,0.0,6.0,41,0.00,,,0.00,Wunderground v.1.15,2013-01-05 23:43:00,
2013-01-05 15:50:00,61.2,38.5,30.09,West,259,0.0,6.0,43,0.00,,,0.00,Wunderground v.1.15,2013-01-05 23:50:00,
2013-01-05 15:55:00,60.5,39.6,30.09,West,259,0.0,6.0,46,0.00,,,0.00,Wunderground v.1.15,2013-01-05 23:55:00,
2013-01-05 16:00:00,59.8,39.5,30.09,West,259,0.0,6.0,47,0.00,,,0.00,Wunderground v.1.15,2013-01-06 00:00:00,
2013-01-05 16:05:00,59.4,39.7,30.09,West,259,0.0,6.0,48,0.00,,,0.00,Wunderground v.1.15,2013-01-06 00:05:00,
2013-01-05 16:10:00,59.2,39.5,30.09,West,259,0.0,6.0,48,0.00,,,0.00,Wunderground v.1.15,2013-01-06 00:10:00,
2013-01-05 16:15:00,58.8,40.2,30.09,West,259,0.0,6.0,50,0.00,,,0.00,Wunderground v.1.15,2013-01-06 00:15:00,
2013-01-05 16:20:00,58.6,40.5,30.09,West,259,0.0,6.0,51,0.00,,,0.00,Wunderground v.1.15,2013-01-06 00:20:00,
2013-01-05 16:25:00,58.3,41.2,30.09,West,259,0.0,6.0,53,0.00,,,0.00,Wunderground v.1.15,2013-01-06 00:25:00,
2013-01-05 16:30:00,57.9,40.9,30.09,West,259,0.0,6.0,53,0.00,,,0.00,Wunderground v.1.15,2013-01-06 00:30:00,
2013-01-05 16:35:00,57.3,40.8,30.09,West,259,0.0,6.0,54,0.00,,,0.00,Wunderground v.1.15,2013-01-06 00:35:00,
2013-01-05 16:41:00,56.7,41.2,30.09,West,259,0.0,6.0,56,0.00,,,0.00,Wunderground v.1.15,2013-01-06 00:41:00,
2013-01-05 16:46:00,56.1,41.5,30.09,West,259,0.0,6.0,58,0.00,,,0.00,Wunderground v.1.15,2013-01-06 00:46:00,
2013-01-05 16:51:00,55.5,41.4,30.09,West,259,0.0,6.0,59,0.00,,,0.00,Wunderground v.1.15,2013-01-06 00:51:00,
2013-01-05 16:56:00,55.1,41.0,30.09,West,259,0.0,6.0,59,0.00,,,0.00,Wunderground v.1.15,2013-01-06 00:56:00,
2013-01-05 17:02:00,54.6,41.0,30.09,West,259,0.0,6.0,60,0.00,,,0.00,Wunderground v.1.15,2013-01-06 01:02:00,
2013-01-05 17:07:00,54.2,40.6,30.10,West,259,0.0,6.0,60,0.00,,,0.00,Wunderground v.1.15,2013-01-06 01:07:00,
2013-01-05 17:12:00,53.8,40.2,30.10,West,259,0.0,6.0,60,0.00,,,0.00,Wunderground v.1.15,2013-01-06 01:12:00,
2013-01-05 17:17:00,53.5,40.8,30.10,West,259,0.0,6.0,62,0.00,,,0.00,Wunderground v.1.15,2013-01-06 01:17:00,
2013-01-05 17:23:00,52.9,40.6,30.10,West,259,0.0,6.0,63,0.00,,,0.00,Wunderground v.1.15,2013-01-06 01:23:00,
2013-01-05 17:28:00,52.2,40.4,30.10,West,259,0.0,6.0,64,0.00,,,0.00,Wunderground v.1.15,2013-01-06 01:28:00,
2013-01-05 17:33:00,51.6,40.2,30.10,West,259,0.0,6.0,65,0.00,,,0.00,Wunderground v.1.15,2013-01-06 01:33:00,
2013-01-05 17:38:00,51.0,40.0,30.10,West,259,0.0,6.0,66,0.00,,,0.00,Wunderground v.1.15,2013-01-06 01:38:00,
2013-01-05 17:43:00,50.5,40.7,30.10,West,259,0.0,6.0,69,0.00,,,0.00,Wunderground v.1.15,2013-01-06 01:43:00,
2013-01-05 17:48:00,50.1,40.7,30.10,West,259,0.0,6.0,70,0.00,,,0.00,Wunderground v.1.15,2013-01-06 01:48:00,
2013-01-05 17:53:00,49.7,40.3,30.10,West,259,0.0,6.0,70,0.00,,,0.00,Wunderground v.1.15,2013-01-06 01:53:00,
2013-01-05 17:58:00,49.5,40.5,30.10,West,259,0.0,6.0,71,0.00,,,0.00,Wunderground v.1.15,2013-01-06 01:58:00,
2013-01-05 18:03:00,49.2,40.6,30.10,West,259,0.0,6.0,72,0.00,,,0.00,Wunderground v.1.15,2013-01-06 02:03:00,
2013-01-05 18:08:00,48.9,40.3,30.10,West,259,0.0,6.0,72,0.00,,,0.00,Wunderground v.1.15,2013-01-06 02:08:00,
2013-01-05 18:13:00,48.6,40.3,30.10,West,259,0.0,6.0,73,0.00,,,0.00,Wunderground v.1.15,2013-01-06 02:13:00,
2013-01-05 18:18:00,48.3,40.0,30.10,West,259,0.0,6.0,73,0.00,,,0.00,Wunderground v.1.15,2013-01-06 02:18:00,
2013-01-05 18:23:00,48.2,39.9,30.10,West,259,0.0,6.0,73,0.00,,,0.00,Wunderground v.1.15,2013-01-06 02:23:00,
2013-01-05 18:28:00,47.9,40.0,30.09,West,259,0.0,6.0,74,0.00,,,0.00,Wunderground v.1.15,2013-01-06 02:28:00,
2013-01-05 18:33:00,47.7,39.8,30.10,West,259,0.0,6.0,74,0.00,,,0.00,Wunderground v.1.15,2013-01-06 02:33:00,
2013-01-05 18:39:00,47.6,39.7,30.10,West,259,0.0,6.0,74,0.00,,,0.00,Wunderground v.1.15,2013-01-06 02:39:00,
2013-01-05 18:44:00,47.3,39.4,30.10,West,259,0.0,6.0,74,0.00,,,0.00,Wunderground v.1.15,2013-01-06 02:44:00,
2013-01-05 18:49:00,47.1,39.6,30.10,West,259,0.0,6.0,75,0.00,,,0.00,Wunderground v.1.15,2013-01-06 02:49:00,
2013-01-05 18:54:00,46.9,39.4,30.10,West,259,0.0,6.0,75,0.00,,,0.00,Wunderground v.1.15,2013-01-06 02:54:00,
2013-01-05 18:59:00,46.8,39.3,30.10,West,259,0.0,6.0,75,0.00,,,0.00,Wunderground v.1.15,2013-01-06 02:59:00,
2013-01-05 19:04:00,46.6,39.1,30.10,West,259,0.0,6.0,75,0.00,,,0.00,Wunderground v.1.15,2013-01-06 03:04:00,
2013-01-05 19:10:00,46.4,38.9,30.10,West,259,0.0,6.0,75,0.00,,,0.00,Wunderground v.1.15,2013-01-06 03:10:00,
2013-01-05 19:15:00,46.3,39.1,30.10,West,259,0.0,6.0,76,0.00,,,0.00,Wunderground v.1.15,2013-01-06 03:15:00,
2013-01-05 19:20:00,46.2,39.1,30.10,West,259,0.0,6.0,76,0.00,,,0.00,Wunderground v.1.15,2013-01-06 03:20:00,
2013-01-05 19:25:00,46.0,38.9,30.10,West,259,0.0,6.0,76,0.00,,,0.00,Wunderground v.1.15,2013-01-06 03:25:00,
2013-01-05 19:30:00,45.9,38.4,30.10,West,259,0.0,6.0,75,0.00,,,0.00,Wunderground v.1.15,2013-01-06 03:30:00,
2013-01-05 19:35:00,45.8,38.7,30.10,West,259,0.0,6.0,76,0.00,,,0.00,Wunderground v.1.15,2013-01-06 03:35:00,
2013-01-05 19:40:00,45.6,38.5,30.10,West,259,0.0,6.0,76,0.00,,,0.00,Wunderground v.1.15,2013-01-06 03:40:00,
2013-01-05 19:45:00,45.4,38.3,30.10,West,259,0.0,6.0,76,0.00,,,0.00,Wunderground v.1.15,2013-01-06 03:45:00,
2013-01-05 19:52:00,45.2,38.1,30.10,West,259,0.0,6.0,76,0.00,,,0.00,Wunderground v.1.15,2013-01-06 03:52:00,
2013-01-05 19:57:00,45.1,37.6,30.10,West,259,0.0,6.0,75,0.00,,,0.00,Wunderground v.1.15,2013-01-06 03:57:00,
2013-01-05 20:02:00,45.2,37.7,30.10,West,259,0.0,6.0,75,0.00,,,0.00,Wunderground v.1.15,2013-01-06 04:02:00,
2013-01-05 20:07:00,45.3,37.8,30.10,West,259,0.0,6.0,75,0.00,,,0.00,Wunderground v.1.15,2013-01-06 04:07:00,
2013-01-05 20:12:00,45.3,37.8,30.10,West,259,0.0,6.0,75,0.00,,,0.00,Wunderground v.1.15,2013-01-06 04:12:00,
2013-01-05 20:17:00,45.3,37.8,30.10,West,259,0.0,6.0,75,0.00,,,0.00,Wunderground v.1.15,2013-01-06 04:17:00,
2013-01-05 20:22:00,45.2,37.7,30.10,West,259,0.0,6.0,75,0.00,,,0.00,Wunderground v.1.15,2013-01-06 04:22:00,
2013-01-05 20:27:00,45.2,37.4,30.10,West,259,0.0,6.0,74,0.00,,,0.00,Wunderground v.1.15,2013-01-06 04:27:00,
2013-01-05 20:32:00,45.2,37.7,30.11,West,259,0.0,6.0,75,0.00,,,0.00,Wunderground v.1.15,2013-01-06 04:32:00,
2013-01-05 20:37:00,45.1,37.6,30.11,West,259,0.0,6.0,75,0.00,,,0.00,Wunderground v.1.15,2013-01-06 04:37:00,
2013-01-05 20:42:00,45.0,37.6,30.11,West,259,0.0,6.0,75,0.00,,,0.00,Wunderground v.1.15,2013-01-06 04:42:00,
2013-01-05 20:47:00,44.9,37.8,30.11,West,259,0.0,6.0,76,0.00,,,0.00,Wunderground v.1.15,2013-01-06 04:47:00,
2013-01-05 20:52:00,44.7,37.6,30.12,West,259,0.0,6.0,76,0.00,,,0.00,Wunderground v.1.15,2013-01-06 04:52:00,
2013-01-05 20:57:00,44.4,37.6,30.13,West,259,0.0,6.0,77,0.00,,,0.00,Wunderground v.1.15,2013-01-06 04:57:00,
2013-01-05 21:01:00,44.2,37.4,30.12,West,259,0.0,6.0,77,0.00,,,0.00,Wunderground v.1.15,2013-01-06 05:01:00,
2013-01-05 21:04:00,44.1,37.3,30.13,West,259,0.0,6.0,77,0.00,,,0.00,Wunderground v.1.15,2013-01-06 05:04:00,
2013-01-05 21:08:00,44.0,37.3,30.12,West,259,0.0,6.0,77,0.00,,,0.00,Wunderground v.1.15,2013-01-06 05:08:00,
2013-01-05 21:13:00,43.9,37.5,30.12,West,259,0.0,6.0,78,0.00,,,0.00,Wunderground v.1.15,2013-01-06 05:13:00,
2013-01-05 21:18:00,43.8,37.7,30.12,West,259,0.0,6.0,79,0.00,,,0.00,Wunderground v.1.15,2013-01-06 05:18:00,
2013-01-05 21:19:00,43.8,37.7,30.12,West,259,0.0,6.0,79,0.00,,,0.00,Wunderground v.1.15,2013-01-06 05:19:00,
2013-01-05 21:24:00,43.8,37.7,30.12,West,259,0.0,6.0,79,0.00,,,0.00,Wunderground v.1.15,2013-01-06 05:24:00,
2013-01-05 21:29:00,43.9,37.8,30.11,West,259,0.0,6.0,79,0.00,,,0.00,Wunderground v.1.15,2013-01-06 05:29:00,
2013-01-05 21:34:00,44.0,37.9,30.11,West,259,0.0,6.0,79,0.00,,,0.00,Wunderground v.1.15,2013-01-06 05:34:00,
2013-01-05 21:39:00,44.1,37.7,30.11,West,259,0.0,6.0,78,0.00,,,0.00,Wunderground v.1.15,2013-01-06 05:39:00,
2013-01-05 21:44:00,44.2,37.8,30.11,West,259,0.0,6.0,78,0.00,,,0.00,Wunderground v.1.15,2013-01-06 05:44:00,
2013-01-05 21:49:00,44.2,38.1,30.11,West,259,0.0,6.0,79,0.00,,,0.00,Wunderground v.1.15,2013-01-06 05:49:00,
2013-01-05 21:54:00,44.3,37.9,30.11,West,259,0.0,6.0,78,0.00,,,0.00,Wunderground v.1.15,2013-01-06 05:54:00,
2013-01-05 21:59:00,44.4,38.0,30.11,West,259,0.0,6.0,78,0.00,,,0.00,Wunderground v.1.15,2013-01-06 05:59:00,
2013-01-05 22:04:00,44.6,38.2,30.11,West,259,0.0,6.0,78,0.00,,,0.00,Wunderground v.1.15,2013-01-06 06:04:00,
2013-01-05 22:10:00,44.8,38.0,30.11,West,259,0.0,6.0,77,0.00,,,0.00,Wunderground v.1.15,2013-01-06 06:10:00,
2013-01-05 22:15:00,44.9,38.1,30.11,West,259,0.0,6.0,77,0.00,,,0.00,Wunderground v.1.15,2013-01-06 06:15:00,
2013-01-05 22:20:00,44.9,38.1,30.11,West,259,0.0,6.0,77,0.00,,,0.00,Wunderground v.1.15,2013-01-06 06:20:00,
2013-01-05 22:25:00,44.9,38.1,30.11,West,259,0.0,6.0,77,0.00,,,0.00,Wunderground v.1.15,2013-01-06 06:25:00,
2013-01-05 22:31:00,44.8,38.0,30.11,West,259,0.0,6.0,77,0.00,,,0.00,Wunderground v.1.15,2013-01-06 06:31:00,
2013-01-05 22:36:00,44.7,38.3,30.10,West,259,0.0,6.0,78,0.00,,,0.00,Wunderground v.1.15,2013-01-06 06:36:00,
2013-01-05 22:41:00,44.6,38.2,30.11,West,259,0.0,6.0,78,0.00,,,0.00,Wunderground v.1.15,2013-01-06 06:41:00,
2013-01-05 22:46:00,44.5,38.1,30.11,West,259,0.0,6.0,78,0.00,,,0.00,Wunderground v.1.15,2013-01-06 06:46:00,
2013-01-05 22:51:00,44.5,38.1,30.11,West,259,0.0,6.0,78,0.00,,,0.00,Wunderground v.1.15,2013-01-06 06:51:00,
2013-01-05 22:56:00,44.6,38.2,30.11,West,259,0.0,6.0,78,0.00,,,0.00,Wunderground v.1.15,2013-01-06 06:56:00,
2013-01-05 23:02:00,44.8,38.4,30.11,West,259,0.0,6.0,78,0.00,,,0.00,Wunderground v.1.15,2013-01-06 07:02:00,
2013-01-05 23:07:00,44.9,38.5,30.11,West,259,0.0,6.0,78,0.00,,,0.00,Wunderground v.1.15,2013-01-06 07:07:00,
2013-01-05 23:13:00,45.0,38.6,30.11,West,259,0.0,6.0,78,0.00,,,0.00,Wunderground v.1.15,2013-01-06 07:13:00,
2013-01-05 23:18:00,44.9,38.5,30.11,West,259,0.0,6.0,78,0.00,,,0.00,Wunderground v.1.15,2013-01-06 07:18:00,
2013-01-05 23:23:00,44.8,38.4,30.11,West,259,0.0,6.0,78,0.00,,,0.00,Wunderground v.1.15,2013-01-06 07:23:00,
2013-01-05 23:28:00,44.8,38.7,30.11,West,259,0.0,6.0,79,0.00,,,0.00,Wunderground v.1.15,2013-01-06 07:28:00,
2013-01-05 23:33:00,44.8,38.7,30.11,West,259,0.0,6.0,79,0.00,,,0.00,Wunderground v.1.15,2013-01-06 07:33:00,
2013-01-05 23:38:00,44.9,38.8,30.11,West,259,0.0,6.0,79,0.00,,,0.00,Wunderground v.1.15,2013-01-06 07:38:00,
2013-01-05 23:43:00,44.9,38.8,30.11,West,259,0.0,6.0,79,0.00,,,0.00,Wunderground v.1.15,2013-01-06 07:43:00,
2013-01-05 23:48:00,45.1,39.0,30.10,West,259,0.0,6.0,79,0.00,,,0.00,Wunderground v.1.15,2013-01-06 07:48:00,
2013-01-05 23:53:00,45.2,38.7,30.10,West,259,0.0,6.0,78,0.00,,,0.00,Wunderground v.1.15,2013-01-06 07:53:00,
2013-01-05 23:58:00,45.3,39.2,30.11,West,259,0.0,6.0,79,0.00,,,0.00,Wunderground v.1.15,2013-01-06 07:58:00,